Time;durP1;ratioP1;P1;durP2;ratioP2;P2;SDS_P1;SDS_P2;PMS_P1;PMS_P2;Temp;Humidity;BMP_temperature;BMP_pressure;BME280_temperature;BME280_humidity;BME280_pressure;Samples;Min_cycle;Max_cycle;Signal;HPM_P1;HPM_P2
2023/12/16 00:02:28;;;;;;;;;;;;;;;6.14;100.00;102996.81;4900077;29;20018;-71
2023/12/16 00:05:31;;;;;;;;;;;;;;;6.04;100.00;103002.84;4899828;29;19923;-71
2023/12/16 00:08:35;;;;;;;;;;;;;;;6.07;100.00;103002.00;4899971;29;19941;-71
2023/12/16 00:11:38;;;;;;;;;;;;;;;6.13;100.00;102991.63;4899859;29;20062;-71
2023/12/16 00:14:41;;;;;;;;;;;;;;;6.14;100.00;102998.56;4899928;29;20007;-71
2023/12/16 00:17:44;;;;;;;;;;;;;;;6.13;100.00;103015.88;4896256;29;19942;-70
2023/12/16 00:20:48;;;;;;;;;;;;;;;6.15;100.00;103021.94;4899868;29;19922;-71
2023/12/16 00:23:51;;;;;;;;;;;;;;;6.12;100.00;103024.50;4899014;29;20033;-71
2023/12/16 00:26:54;;;;;;;;;;;;;;;6.12;100.00;103026.25;4899743;29;19923;-70
2023/12/16 00:29:57;;;;;;;;;;;;;;;5.94;100.00;103016.63;4899685;29;20017;-70
2023/12/16 00:33:00;;;;;;;;;;;;;;;6.01;100.00;103013.19;4899258;29;19963;-71
2023/12/16 00:36:04;;;;;;;;;;;;;;;6.06;100.00;103003.69;4899026;29;19927;-71
2023/12/16 00:39:07;;;;;;;;;;;;;;;6.07;100.00;103002.00;4899431;29;20302;-71
2023/12/16 00:42:10;;;;;;;;;;;;;;;6.12;100.00;102995.06;4898744;29;19974;-71
2023/12/16 00:45:13;;;;;;;;;;;;;;;6.13;100.00;103002.88;4899297;29;19963;-71
2023/12/16 00:48:16;;;;;;;;;;;;;;;6.12;100.00;102995.06;4899214;29;20002;-71
2023/12/16 00:51:19;;;;;;;;;;;;;;;6.10;100.00;102995.09;4899260;29;19926;-71
2023/12/16 00:54:23;;;;;;;;;;;;;;;6.13;100.00;102987.31;4899393;29;19976;-71
2023/12/16 00:57:26;;;;;;;;;;;;;;;6.13;100.00;102989.91;4893635;29;19938;-71
2023/12/16 01:00:29;;;;;;;;;;;;;;;6.15;100.00;102998.56;4899121;29;19922;-71
2023/12/16 01:03:32;;;;;;;;;;;;;;;6.12;100.00;102998.53;4898872;29;20380;-71
2023/12/16 01:06:35;;;;;;;;;;;;;;;6.11;100.00;103004.59;4898993;29;19927;-71
2023/12/16 01:09:38;;;;;;;;;;;;;;;6.00;100.00;103008.88;4898971;29;20410;-71
2023/12/16 01:12:42;;;;;;;;;;;;;;;6.02;100.00;103007.13;4899003;29;19963;-71
2023/12/16 01:15:45;;;;;;;;;;;;;;;6.07;100.00;103005.44;4898783;29;19982;-71
2023/12/16 01:18:49;;;;;;;;;;;;;;;6.11;100.00;103008.94;4898763;29;20060;-71
2023/12/16 01:21:52;;;;;;;;;;;;;;;6.09;100.00;103016.69;4898732;29;19971;-71
2023/12/16 01:24:55;;;;;;;;;;;;;;;6.07;100.00;103015.84;4898671;29;20460;-71
2023/12/16 01:27:58;;;;;;;;;;;;;;;6.04;100.00;103013.22;4898476;29;19963;-71
2023/12/16 01:31:02;;;;;;;;;;;;;;;6.03;100.00;103017.56;4898626;29;19922;-71
2023/12/16 01:34:05;;;;;;;;;;;;;;;6.16;100.00;103018.50;4898403;29;19946;-71
2023/12/16 01:37:07;;;;;;;;;;;;;;;6.11;100.00;103020.19;4898456;29;20404;-71
2023/12/16 01:40:11;;;;;;;;;;;;;;;6.10;100.00;103022.78;4898290;29;19926;-71
2023/12/16 01:43:14;;;;;;;;;;;;;;;6.12;100.00;103021.91;4898369;29;20447;-70
2023/12/16 01:46:17;;;;;;;;;;;;;;;6.08;100.00;103030.56;4897881;29;19975;-70
2023/12/16 01:49:21;;;;;;;;;;;;;;;6.14;100.00;103029.72;4898332;29;20503;-71
2023/12/16 01:52:24;;;;;;;;;;;;;;;6.09;100.00;103029.69;4898239;29;19921;-71
2023/12/16 01:55:28;;;;;;;;;;;;;;;6.11;100.00;103024.50;4897702;29;19928;-70
2023/12/16 01:58:31;;;;;;;;;;;;;;;6.08;100.00;103020.16;4898207;29;19921;-71
2023/12/16 02:01:34;;;;;;;;;;;;;;;6.00;100.00;103030.53;4897600;29;20470;-71
2023/12/16 02:04:38;;;;;;;;;;;;;;;5.98;100.00;103039.16;4898106;29;19923;-71
2023/12/16 02:07:42;;;;;;;;;;;;;;;6.06;100.00;103040.06;4897966;29;19922;-71
2023/12/16 02:10:44;;;;;;;;;;;;;;;6.01;100.00;103052.16;4898178;29;19922;-70
2023/12/16 02:13:49;;;;;;;;;;;;;;;6.06;100.00;103053.03;4898320;29;20431;-70
2023/12/16 02:16:52;;;;;;;;;;;;;;;6.11;100.00;103053.09;4898113;29;20283;-70
2023/12/16 02:19:56;;;;;;;;;;;;;;;6.08;100.00;103040.09;4897481;29;19922;-70
2023/12/16 02:23:00;;;;;;;;;;;;;;;6.10;100.00;103038.38;4897856;29;20344;-70
2023/12/16 02:26:03;;;;;;;;;;;;;;;6.04;100.00;103032.25;4897973;29;20369;-70
2023/12/16 02:29:06;;;;;;;;;;;;;;;6.05;100.00;103036.59;4898011;29;19971;-71
2023/12/16 02:32:09;;;;;;;;;;;;;;;6.04;100.00;103034.00;4897914;29;19923;-71
2023/12/16 02:35:12;;;;;;;;;;;;;;;6.02;100.00;103036.56;4897774;29;20435;-71
2023/12/16 02:38:15;;;;;;;;;;;;;;;5.98;100.00;103028.75;4897887;29;20439;-71
2023/12/16 02:41:21;;;;;;;;;;;;;;;6.02;100.00;103046.09;4897128;29;19974;-71
2023/12/16 02:44:24;;;;;;;;;;;;;;;6.06;100.00;103045.25;4897266;29;19923;-71
2023/12/16 02:47:27;;;;;;;;;;;;;;;6.07;100.00;103044.41;4897504;29;19922;-71
2023/12/16 02:50:30;;;;;;;;;;;;;;;6.05;100.00;103051.31;4897889;29;20399;-71
2023/12/16 02:53:32;;;;;;;;;;;;;;;6.05;100.00;103057.38;4893466;29;19966;-71
2023/12/16 02:56:35;;;;;;;;;;;;;;;5.93;100.00;103059.00;4897343;29;19934;-71
2023/12/16 02:59:38;;;;;;;;;;;;;;;5.95;100.00;103062.50;4897016;29;19922;-71
2023/12/16 03:02:41;;;;;;;;;;;;;;;6.01;100.00;103058.22;4897816;29;19921;-71
2023/12/16 03:05:43;;;;;;;;;;;;;;;6.03;100.00;103055.63;4899321;29;19963;-71
2023/12/16 03:08:47;;;;;;;;;;;;;;;6.04;100.00;103049.59;4900682;29;19970;-71
2023/12/16 03:11:50;;;;;;;;;;;;;;;5.97;100.00;103053.88;4900363;29;19922;-71
2023/12/16 03:14:53;;;;;;;;;;;;;;;6.02;100.00;103061.69;4900975;29;20324;-71
2023/12/16 03:17:56;;;;;;;;;;;;;;;5.99;100.00;103057.31;4900865;29;19922;-71
2023/12/16 03:20:59;;;;;;;;;;;;;;;6.01;100.00;103059.94;4900960;29;19940;-70
2023/12/16 03:24:03;;;;;;;;;;;;;;;5.98;100.00;103050.41;4901197;29;20416;-70
2023/12/16 03:27:07;;;;;;;;;;;;;;;5.88;100.00;103042.50;4900757;29;19931;-71
2023/12/16 03:30:10;;;;;;;;;;;;;;;5.85;100.00;103050.28;4900735;29;19921;-71
2023/12/16 03:33:13;;;;;;;;;;;;;;;5.93;100.00;103052.09;4900495;29;19938;-71
2023/12/16 03:36:17;;;;;;;;;;;;;;;5.75;100.00;103051.94;4900710;29;20300;-70
2023/12/16 03:39:20;;;;;;;;;;;;;;;5.69;100.00;103042.34;4900531;29;19923;-71
2023/12/16 03:42:23;;;;;;;;;;;;;;;5.81;100.00;103042.47;4900054;29;19926;-71
2023/12/16 03:45:26;;;;;;;;;;;;;;;5.87;100.00;103040.75;4900186;29;19970;-70
2023/12/16 03:48:30;;;;;;;;;;;;;;;5.93;100.00;103044.28;4900317;29;19963;-70
2023/12/16 03:51:33;;;;;;;;;;;;;;;5.95;100.00;103039.13;4900380;29;20019;-70
2023/12/16 03:54:36;;;;;;;;;;;;;;;5.93;100.00;103027.84;4900434;29;19926;-71
2023/12/16 03:57:38;;;;;;;;;;;;;;;5.97;100.00;103033.09;4900286;29;19922;-71
2023/12/16 04:00:42;;;;;;;;;;;;;;;5.99;100.00;103033.09;4900534;29;19922;-71
2023/12/16 04:03:45;;;;;;;;;;;;;;;5.98;100.00;103033.97;4900140;29;19926;-71
2023/12/16 04:06:48;;;;;;;;;;;;;;;5.98;100.00;103036.56;4896912;29;19971;-71
2023/12/16 04:09:51;;;;;;;;;;;;;;;5.93;100.00;103025.25;4880901;29;19971;-70
2023/12/16 04:12:54;;;;;;;;;;;;;;;5.90;100.00;103032.97;4880718;29;20388;-71
2023/12/16 04:15:57;;;;;;;;;;;;;;;5.93;100.00;103043.44;4881131;29;20312;-71
2023/12/16 04:19:00;;;;;;;;;;;;;;;5.91;100.00;103047.72;4881097;29;19963;-70
2023/12/16 04:22:03;;;;;;;;;;;;;;;5.88;100.00;103043.38;4881159;29;19932;-71
2023/12/16 04:25:10;;;;;;;;;;;;;;;5.91;100.00;103042.53;4881084;29;19923;-70
2023/12/16 04:28:13;;;;;;;;;;;;;;;5.93;100.00;103044.28;4880963;29;19922;-71
2023/12/16 04:31:17;;;;;;;;;;;;;;;5.93;100.00;103040.84;4880985;29;20289;-71
2023/12/16 04:34:20;;;;;;;;;;;;;;;5.92;100.00;103047.72;4880496;29;20043;-71
2023/12/16 04:37:22;;;;;;;;;;;;;;;5.92;100.00;103054.66;4880860;29;20002;-71
2023/12/16 04:40:27;;;;;;;;;;;;;;;5.82;100.00;103059.75;4880680;29;20402;-71
2023/12/16 04:43:30;;;;;;;;;;;;;;;5.86;100.00;103059.78;4880799;29;20403;-71
2023/12/16 04:46:33;;;;;;;;;;;;;;;5.88;100.00;103058.09;4875532;29;19970;-71
2023/12/16 04:49:36;;;;;;;;;;;;;;;5.82;100.00;103054.56;4876199;29;19923;-71
2023/12/16 04:52:39;;;;;;;;;;;;;;;5.75;100.00;103050.19;4880253;29;19979;-71
2023/12/16 04:55:42;;;;;;;;;;;;;;;5.79;100.00;103044.16;4879811;29;19926;-71
2023/12/16 04:58:45;;;;;;;;;;;;;;;5.76;100.00;103044.13;4879681;29;19923;-71
2023/12/16 05:01:48;;;;;;;;;;;;;;;5.78;100.00;103044.16;4879533;29;19979;-71
2023/12/16 05:04:51;;;;;;;;;;;;;;;5.72;100.00;103051.91;4879841;29;19922;-71
2023/12/16 05:07:54;;;;;;;;;;;;;;;5.81;100.00;103057.19;4879355;29;19923;-71
2023/12/16 05:10:57;;;;;;;;;;;;;;;5.68;100.00;103061.41;4880228;29;19948;-71
2023/12/16 05:14:00;;;;;;;;;;;;;;;5.68;100.00;103060.50;4879810;29;19966;-71
2023/12/16 05:17:03;;;;;;;;;;;;;;;5.71;100.00;103064.03;4879962;29;19971;-71
2023/12/16 05:20:06;;;;;;;;;;;;;;;5.72;100.00;103062.28;4879654;29;20026;-71
2023/12/16 05:23:09;;;;;;;;;;;;;;;5.65;100.00;103076.03;4879733;29;20288;-71
2023/12/16 05:26:12;;;;;;;;;;;;;;;5.62;100.00;103073.44;4879685;29;20025;-71
2023/12/16 05:29:15;;;;;;;;;;;;;;;5.67;100.00;103080.41;4879678;29;20010;-71
2023/12/16 05:32:18;;;;;;;;;;;;;;;5.69;100.00;103080.44;4879595;29;19926;-71
2023/12/16 05:35:21;;;;;;;;;;;;;;;5.69;100.00;103083.88;4879496;29;19927;-71
2023/12/16 05:38:24;;;;;;;;;;;;;;;5.70;100.00;103079.56;4879747;29;19927;-71
2023/12/16 05:41:27;;;;;;;;;;;;;;;5.65;100.00;103076.03;4879322;29;20015;-71
2023/12/16 05:44:30;;;;;;;;;;;;;;;5.58;100.00;103085.50;4878948;29;20461;-71
2023/12/16 05:47:33;;;;;;;;;;;;;;;5.59;100.00;103077.75;4880024;29;19964;-71
2023/12/16 05:50:36;;;;;;;;;;;;;;;5.66;100.00;103086.47;4879453;29;20015;-71
2023/12/16 05:53:39;;;;;;;;;;;;;;;5.68;100.00;103086.44;4879708;29;19995;-71
2023/12/16 05:56:42;;;;;;;;;;;;;;;5.68;100.00;103100.34;4879690;29;19926;-71
2023/12/16 05:59:45;;;;;;;;;;;;;;;5.74;100.00;103091.72;4879537;29;19947;-71
2023/12/16 06:02:48;;;;;;;;;;;;;;;5.69;100.00;103088.22;4879538;29;19924;-71
2023/12/16 06:05:51;;;;;;;;;;;;;;;5.74;100.00;103092.59;4879519;29;19987;-71
2023/12/16 06:08:54;;;;;;;;;;;;;;;5.69;100.00;103101.19;4879498;29;19932;-71
2023/12/16 06:11:58;;;;;;;;;;;;;;;5.62;100.00;103092.47;4879508;29;20391;-71
2023/12/16 06:15:00;;;;;;;;;;;;;;;5.68;100.00;103096.84;4879299;29;19926;-71
2023/12/16 06:18:04;;;;;;;;;;;;;;;5.68;100.00;103092.53;4879221;29;20048;-71
2023/12/16 06:21:14;;;;;;;;;;;;;;;5.65;100.00;103102.91;4878787;29;20384;-71
2023/12/16 06:24:26;;;;;;;;;;;;;;;5.68;100.00;103108.13;4879645;29;20384;-72
2023/12/16 06:27:30;;;;;;;;;;;;;;;5.69;100.00;103104.66;4879168;29;19923;-72
2023/12/16 06:30:34;;;;;;;;;;;;;;;5.68;100.00;103108.13;4879337;29;19922;-72
2023/12/16 06:33:37;;;;;;;;;;;;;;;5.67;100.00;103101.16;4879145;29;20052;-72
2023/12/16 06:36:40;;;;;;;;;;;;;;;5.72;100.00;103088.25;4879080;29;19943;-72
2023/12/16 06:39:43;;;;;;;;;;;;;;;5.68;100.00;103089.94;4879112;29;20411;-72
2023/12/16 06:42:46;;;;;;;;;;;;;;;5.65;100.00;103089.91;4883191;29;19926;-72
2023/12/16 06:45:49;;;;;;;;;;;;;;;5.66;100.00;103091.66;4882315;29;20534;-72
2023/12/16 06:48:52;;;;;;;;;;;;;;;5.66;100.00;103089.06;4882906;29;20383;-72
2023/12/16 06:51:57;;;;;;;;;;;;;;;5.66;100.00;103093.38;4882559;29;19925;-75
2023/12/16 06:55:01;;;;;;;;;;;;;;;5.65;100.00;103089.91;4882387;29;20427;-72
2023/12/16 06:58:04;;;;;;;;;;;;;;;5.70;100.00;103092.53;4882923;29;20379;-72
2023/12/16 07:01:11;;;;;;;;;;;;;;;5.71;100.00;103095.16;4874341;29;19975;-72
2023/12/16 07:04:14;;;;;;;;;;;;;;;5.63;100.00;103109.78;4875519;29;20455;-72
2023/12/16 07:07:17;;;;;;;;;;;;;;;5.68;100.00;103108.13;4882425;29;19944;-72
2023/12/16 07:10:21;;;;;;;;;;;;;;;5.68;100.00;103107.22;4882317;29;19923;-72
2023/12/16 07:13:24;;;;;;;;;;;;;;;5.71;100.00;103109.84;4882292;29;19923;-72
2023/12/16 07:16:30;;;;;;;;;;;;;;;5.75;100.00;103096.94;4882164;29;20305;-72
2023/12/16 07:19:34;;;;;;;;;;;;;;;5.64;100.00;103105.47;4881564;29;20474;-72
2023/12/16 07:22:38;;;;;;;;;;;;;;;5.66;100.00;103103.75;4881488;29;19923;-72
2023/12/16 07:25:41;;;;;;;;;;;;;;;5.64;100.00;103101.13;4880612;29;19971;-73
2023/12/16 07:28:44;;;;;;;;;;;;;;;5.63;100.00;103096.81;4880743;29;20012;-72
2023/12/16 07:31:48;;;;;;;;;;;;;;;5.54;100.00;103087.19;4880712;29;19983;-72
2023/12/16 07:34:51;;;;;;;;;;;;;;;5.54;100.00;103095.00;4880312;29;19926;-72
2023/12/16 07:37:54;;;;;;;;;;;;;;;5.60;100.00;103099.38;4880873;29;20003;-72
2023/12/16 07:40:57;;;;;;;;;;;;;;;5.63;100.00;103108.94;4880773;29;20011;-72
2023/12/16 07:44:01;;;;;;;;;;;;;;;5.63;100.00;103109.78;4880261;29;20405;-72
2023/12/16 07:47:05;;;;;;;;;;;;;;;5.63;100.00;103114.13;4879909;29;20316;-72
2023/12/16 07:50:10;;;;;;;;;;;;;;;5.65;100.00;103123.66;4880110;29;20018;-72
2023/12/16 07:53:13;;;;;;;;;;;;;;;5.61;100.00;103127.06;4864913;29;19923;-72
2023/12/16 07:56:19;;;;;;;;;;;;;;;5.56;100.00;103131.34;4879731;29;20386;-71
2023/12/16 07:59:26;;;;;;;;;;;;;;;5.58;100.00;103127.03;4880679;29;19922;-71
2023/12/16 08:02:33;;;;;;;;;;;;;;;5.64;100.00;103136.59;4879764;29;19963;-71
2023/12/16 08:05:38;;;;;;;;;;;;;;;5.62;100.00;103134.00;4880543;29;19923;-71
2023/12/16 08:08:50;;;;;;;;;;;;;;;5.71;100.00;103146.19;4880522;29;19992;-72
2023/12/16 08:11:58;;;;;;;;;;;;;;;5.73;100.00;103142.75;4880098;29;19944;-71
2023/12/16 08:15:04;;;;;;;;;;;;;;;5.72;100.00;103146.22;4879270;29;19927;-71
2023/12/16 08:18:09;;;;;;;;;;;;;;;5.75;100.00;103151.44;4878848;29;19923;-70
2023/12/16 08:21:16;;;;;;;;;;;;;;;5.76;100.00;103158.38;4880116;29;19922;-69
2023/12/16 08:24:19;;;;;;;;;;;;;;;5.85;100.00;103155.00;4880125;29;20014;-70
2023/12/16 08:27:26;;;;;;;;;;;;;;;5.81;100.00;103161.03;4879835;29;19926;-70
2023/12/16 08:30:30;;;;;;;;;;;;;;;5.91;100.00;103165.44;4875369;29;19957;-70
2023/12/16 08:33:34;;;;;;;;;;;;;;;5.82;100.00;103158.44;4878436;29;19923;-70
2023/12/16 08:36:37;;;;;;;;;;;;;;;5.80;100.00;103170.53;4879090;29;19927;-70
2023/12/16 08:39:40;;;;;;;;;;;;;;;5.86;100.00;103163.66;4879098;29;20341;-72
2023/12/16 08:42:43;;;;;;;;;;;;;;;5.93;100.00;103168.06;4878854;29;20420;-69
2023/12/16 08:45:47;;;;;;;;;;;;;;;6.01;100.00;103164.69;4879125;29;19950;-70
2023/12/16 08:49:23;;;;;;;;;;;;;;;6.00;100.00;103156.91;4879389;29;20029;-70
2023/12/16 08:52:36;;;;;;;;;;;;;;;6.06;100.00;103159.53;4880091;29;19923;-68
2023/12/16 08:55:42;;;;;;;;;;;;;;;6.15;100.00;103154.41;4879456;29;19926;-70
2023/12/16 08:58:46;;;;;;;;;;;;;;;6.14;100.00;103160.47;4879217;29;20411;-70
2023/12/16 09:01:49;;;;;;;;;;;;;;;6.19;100.00;103166.59;4888123;29;20043;-70
2023/12/16 09:04:52;;;;;;;;;;;;;;;6.15;100.00;103167.41;4888601;29;19930;-69
2023/12/16 09:07:55;;;;;;;;;;;;;;;6.21;100.00;103177.84;4887475;29;19953;-69
2023/12/16 09:10:59;;;;;;;;;;;;;;;6.03;100.00;103172.50;4887050;29;20355;-69
2023/12/16 09:14:04;;;;;;;;;;;;;;;6.09;100.00;103175.16;4888866;29;20272;-70
2023/12/16 09:17:08;;;;;;;;;;;;;;;6.22;100.00;103168.31;4879678;29;19941;-70
2023/12/16 09:20:11;;;;;;;;;;;;;;;6.27;100.00;103177.03;4890419;29;19922;-70
2023/12/16 09:23:14;;;;;;;;;;;;;;;6.37;100.00;103177.97;4888588;29;20480;-69
2023/12/16 09:26:18;;;;;;;;;;;;;;;6.41;100.00;103174.53;4884171;29;19923;-69
2023/12/16 09:29:21;;;;;;;;;;;;;;;6.45;100.00;103182.38;4887045;29;20033;-71
2023/12/16 09:32:25;;;;;;;;;;;;;;;6.46;100.00;103183.25;4889759;29;20404;-69
2023/12/16 09:35:36;;;;;;;;;;;;;;;6.49;100.00;103188.47;4883717;29;20312;-69
2023/12/16 09:39:12;;;;;;;;;;;;;;;6.57;100.00;103191.97;4882712;29;19930;-70
2023/12/16 09:42:15;;;;;;;;;;;;;;;6.59;100.00;103186.81;4878261;29;19934;-70
2023/12/16 09:45:19;;;;;;;;;;;;;;;6.60;100.00;103185.94;4890374;29;19994;-69
2023/12/16 09:48:23;;;;;;;;;;;;;;;6.49;100.00;103193.69;4886929;29;19986;-68
2023/12/16 09:51:26;;;;;;;;;;;;;;;6.68;100.00;103195.53;4888361;29;20278;-69
2023/12/16 09:54:30;;;;;;;;;;;;;;;6.72;100.00;103193.81;4886983;29;19997;-69
2023/12/16 09:57:35;;;;;;;;;;;;;;;6.84;100.00;103187.84;4888629;29;19922;-69
2023/12/16 10:00:42;;;;;;;;;;;;;;;7.05;100.00;103190.56;4884850;29;19972;-69
2023/12/16 10:03:46;;;;;;;;;;;;;;;7.08;99.02;103185.34;4894195;29;19922;-69
2023/12/16 10:06:49;;;;;;;;;;;;;;;7.05;94.45;103179.25;4888872;29;19979;-69
2023/12/16 10:09:53;;;;;;;;;;;;;;;6.89;89.02;103178.31;4888923;29;20405;-69
2023/12/16 10:13:00;;;;;;;;;;;;;;;6.85;86.38;103177.44;4882161;29;19926;-69
2023/12/16 10:16:14;;;;;;;;;;;;;;;6.97;86.43;103171.44;4887597;29;19987;-69
2023/12/16 10:19:18;;;;;;;;;;;;;;;7.03;84.53;103170.59;4883646;29;20396;-69
2023/12/16 10:22:21;;;;;;;;;;;;;;;7.07;83.09;103165.41;4896443;29;20014;-69
2023/12/16 10:25:25;;;;;;;;;;;;;;;7.17;82.13;103169.78;4885380;29;19963;-69
2023/12/16 10:28:32;;;;;;;;;;;;;;;7.22;82.11;103167.22;4890823;29;20689;-69
2023/12/16 10:31:37;;;;;;;;;;;;;;;7.31;81.93;103169.84;4888595;29;20018;-69
2023/12/16 10:34:40;;;;;;;;;;;;;;;7.22;81.33;103178.50;4896212;29;19954;-69
2023/12/16 10:37:49;;;;;;;;;;;;;;;7.31;79.90;103169.00;4887827;29;20448;-69
2023/12/16 10:40:53;;;;;;;;;;;;;;;7.31;80.76;103177.66;4888840;29;20284;-70
2023/12/16 10:43:58;;;;;;;;;;;;;;;7.33;78.90;103175.91;4889869;29;20011;-70
2023/12/16 10:47:02;;;;;;;;;;;;;;;7.38;78.45;103179.41;4896076;29;20341;-70
2023/12/16 10:50:09;;;;;;;;;;;;;;;7.34;77.18;103177.69;4884367;29;19935;-69
2023/12/16 10:53:18;;;;;;;;;;;;;;;7.50;77.34;103175.09;4889611;29;20054;-69
2023/12/16 10:56:37;;;;;;;;;;;;;;;7.49;77.07;103169.03;4890359;29;20389;-70
2023/12/16 10:59:45;;;;;;;;;;;;;;;7.56;77.20;103168.22;4892769;29;19921;-69
2023/12/16 11:02:55;;;;;;;;;;;;;;;7.54;77.52;103167.31;4890357;29;20330;-70
2023/12/16 11:06:06;;;;;;;;;;;;;;;7.56;77.43;103160.41;4892929;29;19922;-69
2023/12/16 11:09:11;;;;;;;;;;;;;;;7.72;77.63;103165.63;4892459;29;19975;-70
2023/12/16 11:12:14;;;;;;;;;;;;;;;7.76;75.11;103165.63;4887930;29;19964;-69
2023/12/16 11:15:17;;;;;;;;;;;;;;;8.05;76.69;103152.63;4890901;29;19974;-70
2023/12/16 11:18:22;;;;;;;;;;;;;;;8.04;75.49;103150.91;4887113;29;20324;-70
2023/12/16 11:21:27;;;;;;;;;;;;;;;7.95;75.97;103144.81;4888412;29;19926;-71
2023/12/16 11:24:40;;;;;;;;;;;;;;;7.75;74.81;103142.19;4892235;29;19967;-70
2023/12/16 11:27:46;;;;;;;;;;;;;;;7.71;75.57;103136.09;4895410;29;19971;-71
2023/12/16 11:30:53;;;;;;;;;;;;;;;7.74;74.75;103145.66;4894569;29;19926;-67
2023/12/16 11:33:56;;;;;;;;;;;;;;;7.76;74.94;103150.00;4898407;29;19965;-68
2023/12/16 11:37:02;;;;;;;;;;;;;;;7.76;75.62;103149.16;4886327;29;20406;-68
2023/12/16 11:40:07;;;;;;;;;;;;;;;7.90;76.39;103144.81;4880690;29;20404;-68
2023/12/16 11:43:11;;;;;;;;;;;;;;;7.95;76.49;103134.41;4891834;29;20012;-69
2023/12/16 11:46:33;;;;;;;;;;;;;;;8.04;75.48;103130.06;4887326;29;19927;-70
2023/12/16 11:49:36;;;;;;;;;;;;;;;8.03;72.97;103125.69;4888896;29;19923;-70
2023/12/16 11:52:39;;;;;;;;;;;;;;;8.13;71.51;103109.19;4893026;29;19922;-70
2023/12/16 11:55:42;;;;;;;;;;;;;;;8.36;72.09;103110.94;4892761;29;19976;-71
2023/12/16 11:58:45;;;;;;;;;;;;;;;8.29;72.53;103103.97;4890147;29;19948;-70
2023/12/16 12:01:48;;;;;;;;;;;;;;;8.36;71.60;103090.06;4889359;29;20333;-70
2023/12/16 12:04:52;;;;;;;;;;;;;;;8.40;72.23;103075.31;4890029;29;19962;-70
2023/12/16 12:07:55;;;;;;;;;;;;;;;8.25;72.56;103078.78;4893509;29;19922;-70
2023/12/16 12:11:24;;;;;;;;;;;;;;;8.27;72.46;103075.31;4890898;29;19938;-69
2023/12/16 12:14:27;;;;;;;;;;;;;;;8.21;71.78;103046.66;4890738;29;20007;-68
2023/12/16 12:22:18;;;;;;;;;;;;;;;8.06;72.42;103046.66;4888839;29;19922;-71
2023/12/16 12:25:38;;;;;;;;;;;;;;;8.16;72.27;103048.38;4891639;29;19923;-68
2023/12/16 12:28:41;;;;;;;;;;;;;;;8.21;72.50;103045.78;4889972;29;19970;-69
2023/12/16 12:31:45;;;;;;;;;;;;;;;8.28;73.49;103031.84;4891844;29;19922;-69
2023/12/16 12:35:02;;;;;;;;;;;;;;;8.23;74.22;103021.47;4894354;29;20497;-68
2023/12/16 12:38:05;;;;;;;;;;;;;;;8.26;73.98;103025.75;4888359;29;19964;-68
2023/12/16 12:41:10;;;;;;;;;;;;;;;8.37;73.44;103030.09;4886333;29;20022;-68
2023/12/16 12:44:13;;;;;;;;;;;;;;;8.43;72.88;103024.03;4887226;29;19973;-68
2023/12/16 12:47:26;;;;;;;;;;;;;;;8.53;72.25;103012.69;4888476;29;19979;-66
2023/12/16 12:50:29;;;;;;;;;;;;;;;8.42;73.40;103010.97;4889562;29;19923;-67
2023/12/16 12:53:34;;;;;;;;;;;;;;;8.43;72.03;103008.38;4886236;29;20015;-67
2023/12/16 12:56:37;;;;;;;;;;;;;;;8.59;75.52;103009.19;4887642;29;19926;-69
2023/12/16 12:59:41;;;;;;;;;;;;;;;8.61;77.92;102994.38;4888769;29;19963;-69
2023/12/16 13:02:44;;;;;;;;;;;;;;;8.59;79.31;102989.19;4887492;29;20383;-69
2023/12/16 13:05:50;;;;;;;;;;;;;;;8.54;80.36;102985.72;4887930;29;20044;-68
2023/12/16 13:08:54;;;;;;;;;;;;;;;8.43;80.62;102982.31;4889328;29;20066;-68
2023/12/16 13:12:02;;;;;;;;;;;;;;;8.23;73.98;102986.69;4888019;29;20007;-70
2023/12/16 13:15:06;;;;;;;;;;;;;;;8.18;78.17;102981.50;4887748;29;19931;-69
2023/12/16 13:18:09;;;;;;;;;;;;;;;8.27;79.61;102980.59;4880585;29;19926;-71
2023/12/16 13:21:12;;;;;;;;;;;;;;;8.33;81.30;102986.66;4891808;29;19923;-70
2023/12/16 13:24:16;;;;;;;;;;;;;;;8.28;82.70;102977.13;4889389;29;20031;-70
2023/12/16 13:27:21;;;;;;;;;;;;;;;8.18;82.80;102980.63;4888686;29;19923;-69
2023/12/16 13:30:45;;;;;;;;;;;;;;;8.08;85.48;102987.59;4894291;29;19926;-68
2023/12/16 13:33:48;;;;;;;;;;;;;;;7.82;75.32;102988.53;4887482;29;19922;-67
2023/12/16 13:36:51;;;;;;;;;;;;;;;7.98;78.13;102989.38;4888557;29;19975;-69
2023/12/16 13:39:54;;;;;;;;;;;;;;;8.03;80.22;102984.13;4886801;29;20051;-69
2023/12/16 13:42:57;;;;;;;;;;;;;;;8.14;81.10;102988.47;4887977;29;20061;-72
2023/12/16 13:46:00;;;;;;;;;;;;;;;8.18;80.93;102981.50;4887429;29;19959;-69
2023/12/16 13:49:07;;;;;;;;;;;;;;;8.16;81.75;102988.44;4888572;29;19947;-71
2023/12/16 13:52:10;;;;;;;;;;;;;;;8.04;81.49;102985.84;4884328;29;19962;-70
2023/12/16 13:55:16;;;;;;;;;;;;;;;8.14;81.92;102979.78;4886699;29;21209;-69
2023/12/16 13:58:21;;;;;;;;;;;;;;;8.17;81.78;102974.56;4885087;29;19946;-73
2023/12/16 14:01:24;;;;;;;;;;;;;;;8.13;80.52;102978.88;4890435;29;20280;-74
2023/12/16 14:04:27;;;;;;;;;;;;;;;8.00;81.65;102982.41;4888828;29;19922;-71
2023/12/16 14:07:31;;;;;;;;;;;;;;;7.86;80.52;102974.63;4886562;29;20292;-72
2023/12/16 14:10:35;;;;;;;;;;;;;;;8.01;80.33;102978.94;4886221;29;20402;-70
2023/12/16 14:13:39;;;;;;;;;;;;;;;8.09;79.97;102968.47;4887720;29;19926;-70
2023/12/16 14:16:42;;;;;;;;;;;;;;;8.02;80.40;102975.47;4888157;29;20373;-71
2023/12/16 14:19:45;;;;;;;;;;;;;;;7.89;77.34;102965.94;4888200;29;20360;-70
2023/12/16 14:22:49;;;;;;;;;;;;;;;7.83;77.40;102974.63;4878426;29;19926;-70
2023/12/16 14:25:52;;;;;;;;;;;;;;;7.81;75.44;102960.72;4878286;29;20370;-71
2023/12/16 14:28:55;;;;;;;;;;;;;;;7.84;77.82;102957.25;4877932;29;19923;-72
2023/12/16 14:31:59;;;;;;;;;;;;;;;7.84;79.65;102954.66;4887878;29;20063;-72
2023/12/16 14:35:04;;;;;;;;;;;;;;;7.75;80.39;102955.53;4882814;29;20388;-73
2023/12/16 14:38:07;;;;;;;;;;;;;;;7.61;82.81;102952.09;4886989;29;20010;-70
2023/12/16 14:41:14;;;;;;;;;;;;;;;7.56;84.16;102940.78;4884675;29;19991;-70
2023/12/16 14:44:17;;;;;;;;;;;;;;;7.39;85.73;102946.88;4882424;29;19922;-70
2023/12/16 14:47:20;;;;;;;;;;;;;;;7.32;86.91;102944.28;4886154;29;19962;-69
2023/12/16 14:50:23;;;;;;;;;;;;;;;7.18;87.75;102950.38;4888624;29;19950;-68
2023/12/16 14:53:26;;;;;;;;;;;;;;;7.19;88.29;102954.69;4885493;29;19930;-70
2023/12/16 14:56:29;;;;;;;;;;;;;;;7.16;88.71;102957.28;4895936;29;19926;-70
2023/12/16 14:59:32;;;;;;;;;;;;;;;7.02;89.00;102950.31;4891467;29;19970;-70
2023/12/16 15:02:36;;;;;;;;;;;;;;;7.01;89.46;102940.81;4884592;29;20018;-70
2023/12/16 15:05:39;;;;;;;;;;;;;;;6.96;89.45;102941.66;4900595;29;20340;-70
2023/12/16 15:08:42;;;;;;;;;;;;;;;6.86;90.01;102952.03;4900427;29;19969;-70
2023/12/16 15:11:45;;;;;;;;;;;;;;;6.78;90.78;102948.56;4900307;29;20018;-70
2023/12/16 15:14:48;;;;;;;;;;;;;;;6.60;92.30;102945.03;4900186;29;19926;-70
2023/12/16 15:17:51;;;;;;;;;;;;;;;6.53;92.57;102938.97;4898074;29;19922;-70
2023/12/16 15:20:55;;;;;;;;;;;;;;;6.33;93.51;102942.38;4900126;29;19947;-70
2023/12/16 15:23:58;;;;;;;;;;;;;;;6.36;93.26;102942.38;4900066;29;19971;-70
2023/12/16 15:27:01;;;;;;;;;;;;;;;6.33;93.50;102950.16;4899954;29;20043;-70
2023/12/16 15:30:08;;;;;;;;;;;;;;;6.20;93.76;102950.09;4900057;29;19938;-70
2023/12/16 15:33:11;;;;;;;;;;;;;;;6.29;93.35;102957.94;4899852;29;20015;-70
2023/12/16 15:36:15;;;;;;;;;;;;;;;6.28;93.24;102956.19;4899771;29;19927;-70
2023/12/16 15:39:18;;;;;;;;;;;;;;;6.32;92.81;102954.50;4893159;29;19922;-70
2023/12/16 15:42:22;;;;;;;;;;;;;;;6.19;93.07;102948.38;4900133;29;20010;-70
2023/12/16 15:45:25;;;;;;;;;;;;;;;6.15;93.47;102944.00;4888873;29;20127;-70
2023/12/16 15:48:29;;;;;;;;;;;;;;;6.05;94.16;102944.81;4900551;29;19971;-70
2023/12/16 15:51:32;;;;;;;;;;;;;;;5.97;93.69;102938.75;4900511;29;19922;-70
2023/12/16 15:54:35;;;;;;;;;;;;;;;6.00;93.50;102938.75;4900330;29;19967;-70
2023/12/16 15:57:40;;;;;;;;;;;;;;;5.80;93.89;102948.97;4900227;29;19944;-70